Barto, Mississippi
Current Conditions -  °F | °C
As of 3:45 PM on Friday 19 Dec 2014 (Local Time) from KMCB Reporting Station
Light Rain Light Rain  
Wind Chill: 42°   Ceiling: 3400
Heat Index: 45°   Visibility: 5mi
Dew Point: 42°   Wind: 6mph
Humidity: 90%   Direction: NA
Pressure: 30.09"   Gusts: NA
Location:  31.1693°N, 90.3678°W
Report Text: KMCB 192145Z AUTO VRB05KT 5SM -RA BR SCT023 BKN034 OVC049 07/06 A3009 RMK AO2 P0006 T00720056
Loading
Personal Weather Stations






























Interactive Weather Map New forecast layout! Learn more

10-Day Weather Forecast

Advertisements
Track Severe Weather on mobile